Time;durP1;ratioP1;P1;durP2;ratioP2;P2;SDS_P1;SDS_P2;PMS_P1;PMS_P2;Temp;Humidity;BMP_temperature;BMP_pressure;BME280_temperature;BME280_humidity;BME280_pressure;Samples;Min_cycle;Max_cycle;Signal;HPM_P1;HPM_P2
2024/01/15 00:02:17;;;;;;;1.07;0.80;;;20.30;54.10;;;;;;5099915;28;20224;-69
2024/01/15 00:04:43;;;;;;;1.03;0.80;;;20.30;54.10;;;;;;5099442;28;20169;-68
2024/01/15 00:07:08;;;;;;;1.90;1.00;;;20.30;54.10;;;;;;5099614;28;20169;-69
2024/01/15 00:09:35;;;;;;;1.10;0.80;;;20.30;54.10;;;;;;5099710;28;20201;-69
2024/01/15 00:12:01;;;;;;;1.60;1.10;;;20.30;54.10;;;;;;5099661;28;20176;-69
2024/01/15 00:14:27;;;;;;;1.23;0.83;;;20.20;54.10;;;;;;5099125;28;20403;-69
2024/01/15 00:16:54;;;;;;;1.00;0.80;;;20.30;54.10;;;;;;5098866;28;20918;-69
2024/01/15 00:19:21;;;;;;;0.90;0.70;;;20.30;54.10;;;;;;5098940;28;20454;-68
2024/01/15 00:21:47;;;;;;;1.30;0.90;;;20.20;54.60;;;;;;5080775;28;20796;-69
2024/01/15 00:24:13;;;;;;;1.63;1.00;;;20.20;54.10;;;;;;5099418;28;20410;-69
2024/01/15 00:26:39;;;;;;;1.73;1.10;;;20.20;54.10;;;;;;5099175;28;20235;-68
2024/01/15 00:29:06;;;;;;;1.00;0.80;;;20.20;54.10;;;;;;5098913;28;20439;-69
2024/01/15 00:31:32;;;;;;;1.20;1.10;;;20.20;54.10;;;;;;5099116;28;20443;-69
2024/01/15 00:33:57;;;;;;;1.00;0.80;;;20.30;54.20;;;;;;5098984;28;20418;-69
2024/01/15 00:36:23;;;;;;;1.50;1.20;;;20.30;54.20;;;;;;5097103;28;20185;-69
2024/01/15 00:38:48;;;;;;;1.17;0.80;;;20.20;54.10;;;;;;5096022;28;20189;-70
2024/01/15 00:41:15;;;;;;;1.10;0.80;;;20.20;54.10;;;;;;5077562;28;20520;-68
2024/01/15 00:43:40;;;;;;;1.07;0.90;;;20.20;54.10;;;;;;5077438;28;20323;-69
2024/01/15 00:46:06;;;;;;;1.10;0.80;;;20.20;54.10;;;;;;5095609;28;20475;-69
2024/01/15 00:48:32;;;;;;;1.17;1.03;;;20.20;54.10;;;;;;5095513;28;20193;-68
2024/01/15 00:50:58;;;;;;;1.03;0.87;;;20.20;54.10;;;;;;5095192;28;20173;-69
2024/01/15 00:53:23;;;;;;;1.07;0.83;;;20.20;54.10;;;;;;5095345;28;20792;-69
2024/01/15 00:55:50;;;;;;;1.30;1.00;;;20.20;54.70;;;;;;5095482;28;20177;-69
2024/01/15 00:58:16;;;;;;;1.27;1.00;;;20.20;54.10;;;;;;5095482;28;20276;-69
2024/01/15 01:00:41;;;;;;;1.00;0.90;;;20.20;54.10;;;;;;5095241;28;20523;-69
2024/01/15 01:03:07;;;;;;;1.10;0.83;;;20.20;54.10;;;;;;5095415;28;20687;-69
2024/01/15 01:05:34;;;;;;;1.00;0.90;;;20.20;54.10;;;;;;5095331;28;20219;-69
2024/01/15 01:07:59;;;;;;;1.10;0.80;;;20.20;54.10;;;;;;5095259;28;20403;-69
2024/01/15 01:10:25;;;;;;;1.30;1.17;;;20.20;54.10;;;;;;5094903;28;20447;-69
2024/01/15 01:12:51;;;;;;;1.70;1.10;;;20.20;54.10;;;;;;5095608;28;20177;-69
2024/01/15 01:15:16;;;;;;;1.23;0.80;;;20.20;54.10;;;;;;5095535;28;20177;-69
2024/01/15 01:17:42;;;;;;;1.53;1.10;;;20.20;54.10;;;;;;5095183;28;20181;-68
2024/01/15 01:20:09;;;;;;;1.20;1.00;;;20.20;54.20;;;;;;5094755;28;20221;-69
2024/01/15 01:22:35;;;;;;;1.20;0.80;;;20.20;54.10;;;;;;5095304;28;20189;-69
2024/01/15 01:25:00;;;;;;;1.03;0.77;;;20.20;54.10;;;;;;5094995;28;20411;-69
2024/01/15 01:27:26;;;;;;;1.20;1.10;;;20.20;54.10;;;;;;5094892;28;20984;-69
2024/01/15 01:29:52;;;;;;;1.30;1.07;;;20.20;54.10;;;;;;5095198;28;20245;-69
2024/01/15 01:32:17;;;;;;;1.30;0.97;;;20.20;54.10;;;;;;5076558;28;20181;-69
2024/01/15 01:34:43;;;;;;;1.07;0.83;;;20.20;54.10;;;;;;5094893;28;20181;-67
2024/01/15 01:37:10;;;;;;;1.70;1.07;;;20.20;54.20;;;;;;5094495;28;20174;-69
2024/01/15 01:39:36;;;;;;;1.50;1.10;;;20.20;54.10;;;;;;5094485;28;20201;-67
2024/01/15 01:42:01;;;;;;;1.13;0.80;;;20.20;54.10;;;;;;5094608;28;20511;-69
2024/01/15 01:44:27;;;;;;;0.93;0.70;;;20.20;54.10;;;;;;5094281;28;20186;-69
2024/01/15 01:46:53;;;;;;;1.00;0.70;;;20.20;54.10;;;;;;5094233;28;20170;-69
2024/01/15 01:49:18;;;;;;;1.27;1.00;;;20.20;54.10;;;;;;5092146;28;20196;-69
2024/01/15 01:51:44;;;;;;;1.10;0.90;;;20.20;54.20;;;;;;5094662;28;20749;-69
2024/01/15 01:54:13;;;;;;;1.10;0.77;;;20.20;54.10;;;;;;5094224;28;20205;-69
2024/01/15 01:56:40;;;;;;;1.33;0.80;;;20.20;54.10;;;;;;5094214;28;20456;-68
2024/01/15 01:59:07;;;;;;;1.43;0.97;;;20.20;54.20;;;;;;5094256;28;20511;-69
2024/01/15 02:01:33;;;;;;;1.10;0.80;;;20.20;54.20;;;;;;5094349;28;20780;-69
2024/01/15 02:03:59;;;;;;;1.20;0.90;;;20.20;54.20;;;;;;5093844;28;20456;-70
2024/01/15 02:06:25;;;;;;;1.20;0.87;;;20.20;54.20;;;;;;5093891;28;20415;-68
2024/01/15 02:08:51;;;;;;;1.13;0.80;;;20.20;54.10;;;;;;5093956;28;20475;-69
2024/01/15 02:11:17;;;;;;;1.00;0.80;;;20.10;54.10;;;;;;5093945;28;20192;-70
2024/01/15 02:13:42;;;;;;;1.17;0.90;;;20.20;54.70;;;;;;5093541;28;20170;-70
2024/01/15 02:16:08;;;;;;;1.10;0.80;;;20.20;54.20;;;;;;5093671;28;20173;-69
2024/01/15 02:18:44;;;;;;;1.30;0.90;;;20.20;54.20;;;;;;5093798;28;20236;-70
2024/01/15 02:21:10;;;;;;;1.40;0.90;;;20.20;54.20;;;;;;5093593;28;20177;-68
2024/01/15 02:23:37;;;;;;;1.03;0.77;;;20.20;54.20;;;;;;5094025;28;20458;-67
2024/01/15 02:26:04;;;;;;;1.20;0.90;;;20.20;54.20;;;;;;5093188;28;20457;-69
2024/01/15 02:28:29;;;;;;;1.20;0.90;;;20.20;54.20;;;;;;5093252;28;20514;-68
2024/01/15 02:30:55;;;;;;;1.00;0.80;;;20.20;54.20;;;;;;5093739;28;20523;-69
2024/01/15 02:33:20;;;;;;;0.90;0.70;;;20.10;54.10;;;;;;5093467;28;20184;-68
2024/01/15 02:35:46;;;;;;;1.63;0.70;;;20.10;54.10;;;;;;5093689;28;20186;-69
2024/01/15 02:38:12;;;;;;;1.17;0.80;;;20.10;54.10;;;;;;5093578;28;20170;-68
2024/01/15 02:40:38;;;;;;;1.17;0.87;;;20.10;54.10;;;;;;5093370;28;20604;-69
2024/01/15 02:43:04;;;;;;;1.20;1.00;;;20.10;54.60;;;;;;5093403;28;20272;-70
2024/01/15 02:45:30;;;;;;;1.30;0.93;;;20.10;54.10;;;;;;5093074;28;20437;-69
2024/01/15 02:47:55;;;;;;;1.57;0.90;;;20.10;54.10;;;;;;5093943;28;20182;-67
2024/01/15 02:50:21;;;;;;;1.10;0.87;;;20.10;54.10;;;;;;5093630;28;20258;-68
2024/01/15 02:52:47;;;;;;;1.20;1.00;;;20.10;54.10;;;;;;5092930;28;20209;-69
2024/01/15 02:55:12;;;;;;;1.00;0.80;;;20.20;54.20;;;;;;5092920;28;20266;-69
2024/01/15 02:57:38;;;;;;;1.20;1.00;;;20.10;54.10;;;;;;5092921;28;20178;-69
2024/01/15 03:00:04;;;;;;;1.20;0.90;;;20.10;54.10;;;;;;5092270;28;20216;-69
2024/01/15 03:02:31;;;;;;;1.20;0.90;;;20.10;54.10;;;;;;5093878;28;20216;-69
2024/01/15 03:04:57;;;;;;;0.80;0.70;;;20.10;54.10;;;;;;5092841;28;20506;-69
2024/01/15 03:07:23;;;;;;;1.30;0.90;;;20.10;54.10;;;;;;5075212;28;20428;-69
2024/01/15 03:09:48;;;;;;;1.07;0.87;;;20.10;54.10;;;;;;5093092;28;20463;-69
2024/01/15 03:12:14;;;;;;;1.00;0.77;;;20.10;54.10;;;;;;5092635;28;20250;-69
2024/01/15 03:14:39;;;;;;;1.20;0.90;;;20.10;54.10;;;;;;5092669;28;20174;-69
2024/01/15 03:17:05;;;;;;;1.10;0.90;;;20.10;54.10;;;;;;5092624;28;20197;-69
2024/01/15 03:19:34;;;;;;;1.13;0.90;;;20.10;54.10;;;;;;5092980;28;20555;-69
2024/01/15 03:22:00;;;;;;;1.10;0.80;;;20.10;54.10;;;;;;5092747;28;20412;-69
2024/01/15 03:24:26;;;;;;;1.20;0.90;;;20.10;54.10;;;;;;5093112;28;20427;-69
2024/01/15 03:26:52;;;;;;;1.10;0.70;;;20.10;54.70;;;;;;5092740;28;20447;-69
2024/01/15 03:29:17;;;;;;;1.10;0.90;;;20.10;54.10;;;;;;5092716;28;20459;-69
2024/01/15 03:31:43;;;;;;;1.37;1.00;;;20.10;54.10;;;;;;5092855;28;20169;-69
2024/01/15 03:34:08;;;;;;;1.20;0.90;;;20.10;54.10;;;;;;5092773;28;20227;-67
2024/01/15 03:36:34;;;;;;;1.00;0.80;;;20.10;54.10;;;;;;5093227;28;20235;-69
2024/01/15 03:38:59;;;;;;;1.07;0.80;;;20.10;54.10;;;;;;5092762;28;20228;-69
2024/01/15 03:41:25;;;;;;;1.10;0.90;;;20.10;54.10;;;;;;5092849;28;20188;-69
2024/01/15 03:43:51;;;;;;;1.20;1.03;;;20.10;54.10;;;;;;5092960;28;20206;-69
2024/01/15 03:46:16;;;;;;;1.00;0.90;;;20.10;54.10;;;;;;5092810;28;20184;-69
2024/01/15 03:48:42;;;;;;;1.70;1.17;;;20.00;54.00;;;;;;5092735;28;20197;-66
2024/01/15 03:51:07;;;;;;;1.17;0.90;;;20.10;54.10;;;;;;5074782;28;20190;-70
2024/01/15 03:53:33;;;;;;;1.10;0.93;;;20.10;54.10;;;;;;5092276;28;20787;-70
2024/01/15 03:55:58;;;;;;;1.40;1.03;;;20.10;54.10;;;;;;5092371;28;20177;-71
2024/01/15 03:58:24;;;;;;;1.80;1.10;;;20.10;54.10;;;;;;5092390;28;20177;-70
2024/01/15 04:00:50;;;;;;;1.47;0.93;;;20.10;54.10;;;;;;5092227;28;20174;-69
2024/01/15 04:03:15;;;;;;;1.20;0.90;;;20.10;54.10;;;;;;5092605;28;20613;-70
2024/01/15 04:05:41;;;;;;;0.97;0.77;;;20.10;54.10;;;;;;5092551;28;20162;-69
2024/01/15 04:08:06;;;;;;;1.30;0.90;;;20.10;54.10;;;;;;5092336;28;20284;-71
2024/01/15 04:10:32;;;;;;;1.20;0.90;;;20.00;54.10;;;;;;5092951;28;20671;-71
2024/01/15 04:12:59;;;;;;;1.13;0.90;;;20.10;54.10;;;;;;5096228;28;20178;-70
2024/01/15 04:15:25;;;;;;;1.40;1.10;;;20.10;54.10;;;;;;5096470;28;20192;-70
2024/01/15 04:17:52;;;;;;;1.20;0.83;;;20.10;54.10;;;;;;5096211;28;21009;-70
2024/01/15 04:20:17;;;;;;;0.97;0.70;;;20.00;54.10;;;;;;5096311;28;20580;-69
2024/01/15 04:22:44;;;;;;;1.17;1.00;;;20.10;54.10;;;;;;5096110;28;20462;-70
2024/01/15 04:25:09;;;;;;;1.10;0.73;;;20.00;54.00;;;;;;5096115;28;20170;-70
2024/01/15 04:27:35;;;;;;;1.07;0.87;;;20.10;54.10;;;;;;5077966;28;20532;-70
2024/01/15 04:30:01;;;;;;;1.23;0.93;;;20.00;54.00;;;;;;5095676;28;20197;-70
2024/01/15 04:32:26;;;;;;;1.10;0.77;;;20.10;54.10;;;;;;5096105;28;20272;-70
2024/01/15 04:34:52;;;;;;;0.90;0.70;;;20.10;54.10;;;;;;5095683;28;20718;-70
2024/01/15 04:37:17;;;;;;;1.40;1.10;;;20.10;54.40;;;;;;5096220;28;20637;-70
2024/01/15 04:39:43;;;;;;;1.00;0.83;;;20.10;54.10;;;;;;5095489;28;20201;-69
2024/01/15 04:42:09;;;;;;;1.00;0.70;;;20.10;54.10;;;;;;5077010;28;20243;-70
2024/01/15 04:44:34;;;;;;;1.20;0.87;;;20.00;54.10;;;;;;5095388;28;20170;-69
2024/01/15 04:47:00;;;;;;;1.07;0.90;;;20.00;54.00;;;;;;5095031;28;20173;-69
2024/01/15 04:49:29;;;;;;;1.30;0.83;;;20.10;54.20;;;;;;5076822;28;20623;-68
2024/01/15 04:51:55;;;;;;;1.33;0.90;;;20.10;54.10;;;;;;5095155;28;20162;-69
2024/01/15 04:54:21;;;;;;;1.10;0.77;;;20.10;54.10;;;;;;5095128;28;20411;-70
2024/01/15 04:56:46;;;;;;;1.30;0.97;;;20.10;54.10;;;;;;5095383;28;20399;-68
2024/01/15 04:59:14;;;;;;;1.53;0.97;;;20.00;54.00;;;;;;5095581;28;20194;-70
2024/01/15 05:01:40;;;;;;;1.43;1.13;;;20.00;54.00;;;;;;5095075;28;20578;-70
2024/01/15 05:04:05;;;;;;;1.13;0.80;;;20.00;54.00;;;;;;5094931;28;20461;-69
2024/01/15 05:06:31;;;;;;;1.40;0.90;;;20.10;54.10;;;;;;5095357;28;20174;-70
2024/01/15 05:08:57;;;;;;;1.00;0.77;;;20.10;54.10;;;;;;5095335;28;20202;-69
2024/01/15 05:11:23;;;;;;;1.00;0.70;;;20.00;54.10;;;;;;5095469;28;20613;-70
2024/01/15 05:13:48;;;;;;;1.33;0.80;;;20.10;54.10;;;;;;5076860;28;20192;-70
2024/01/15 05:16:14;;;;;;;1.20;0.80;;;20.00;54.00;;;;;;5095320;28;20420;-70
2024/01/15 05:18:40;;;;;;;1.20;0.90;;;20.10;54.10;;;;;;5095276;28;20216;-70
2024/01/15 05:21:05;;;;;;;1.20;0.87;;;20.10;54.10;;;;;;5095326;28;20296;-70
2024/01/15 05:23:31;;;;;;;1.10;0.93;;;20.10;54.10;;;;;;5094710;28;20197;-68
2024/01/15 05:25:57;;;;;;;1.20;0.90;;;20.10;54.10;;;;;;5095033;28;20231;-70
2024/01/15 05:28:23;;;;;;;0.90;0.70;;;20.10;54.10;;;;;;5095193;28;20454;-70
2024/01/15 05:30:50;;;;;;;1.50;1.00;;;20.10;54.10;;;;;;5095017;28;20169;-68
2024/01/15 05:33:16;;;;;;;1.40;0.80;;;20.10;54.00;;;;;;5094935;28;20219;-69
2024/01/15 05:35:42;;;;;;;1.00;0.70;;;20.10;54.00;;;;;;5095012;28;20832;-67
2024/01/15 05:38:07;;;;;;;1.63;0.93;;;20.10;54.10;;;;;;5076395;28;20440;-68
2024/01/15 05:40:33;;;;;;;1.10;0.87;;;20.10;54.10;;;;;;5094653;28;20177;-69
2024/01/15 05:42:58;;;;;;;1.80;1.20;;;20.10;54.00;;;;;;5094772;28;20203;-68
2024/01/15 05:45:26;;;;;;;2.90;2.50;;;20.10;54.00;;;;;;5076513;28;20530;-69
2024/01/15 05:47:51;;;;;;;1.40;1.23;;;20.10;53.90;;;;;;5094552;28;20170;-68
2024/01/15 05:50:17;;;;;;;1.53;1.30;;;20.10;54.00;;;;;;5094219;28;20489;-67
2024/01/15 05:52:42;;;;;;;1.47;1.10;;;20.10;53.90;;;;;;5094722;28;20201;-67
2024/01/15 05:55:09;;;;;;;1.37;1.10;;;20.10;53.90;;;;;;5094929;28;20652;-69
2024/01/15 05:57:35;;;;;;;1.80;1.00;;;20.10;53.90;;;;;;5094475;28;20170;-68
2024/01/15 06:00:01;;;;;;;1.73;1.13;;;20.10;53.90;;;;;;5094259;28;20438;-69
2024/01/15 06:02:26;;;;;;;1.30;1.13;;;20.00;53.80;;;;;;5094305;28;20501;-68
2024/01/15 06:04:52;;;;;;;1.20;0.97;;;20.10;54.00;;;;;;5094215;28;20173;-69
2024/01/15 06:07:18;;;;;;;1.30;1.00;;;20.10;54.00;;;;;;5094143;28;20522;-68
2024/01/15 06:09:43;;;;;;;1.43;0.90;;;20.00;53.90;;;;;;5094133;28;20201;-68
2024/01/15 06:12:09;;;;;;;1.10;0.83;;;20.00;53.90;;;;;;5094397;28;20173;-68
2024/01/15 06:14:34;;;;;;;1.40;1.10;;;20.10;54.00;;;;;;5094272;28;20204;-69
2024/01/15 06:17:00;;;;;;;1.37;1.10;;;20.10;54.00;;;;;;5095712;28;20683;-68
2024/01/15 06:19:25;;;;;;;1.20;0.83;;;20.10;54.00;;;;;;5096069;28;20249;-68
2024/01/15 06:21:51;;;;;;;1.00;0.80;;;20.10;54.00;;;;;;5096476;28;20165;-68
2024/01/15 06:24:20;;;;;;;1.00;0.87;;;20.10;54.00;;;;;;5094847;28;20709;-68
2024/01/15 06:26:46;;;;;;;0.90;0.70;;;20.10;54.00;;;;;;5096180;28;20166;-69
2024/01/15 06:29:12;;;;;;;1.30;0.90;;;20.10;54.10;;;;;;5096256;28;20430;-69
2024/01/15 06:31:37;;;;;;;1.40;1.00;;;20.10;54.10;;;;;;5095559;28;20926;-68
2024/01/15 06:34:03;;;;;;;1.43;0.90;;;20.20;54.20;;;;;;5095713;28;20192;-66
2024/01/15 06:36:29;;;;;;;1.20;0.90;;;20.20;54.20;;;;;;5095938;28;20178;-69
2024/01/15 06:38:54;;;;;;;1.00;0.77;;;20.20;54.20;;;;;;5095690;28;20220;-67
2024/01/15 06:41:20;;;;;;;1.57;0.80;;;20.30;54.20;;;;;;5077574;28;20184;-67
2024/01/15 06:43:45;;;;;;;1.03;0.80;;;20.30;54.20;;;;;;5095552;28;20201;-68
2024/01/15 06:46:11;;;;;;;1.20;0.80;;;20.30;54.20;;;;;;5077473;28;20169;-68
2024/01/15 06:48:37;;;;;;;1.17;0.90;;;20.40;54.20;;;;;;5076714;28;20201;-68
2024/01/15 06:51:02;;;;;;;1.03;0.80;;;20.40;54.20;;;;;;5058557;28;20186;-70
2024/01/15 06:53:28;;;;;;;4.10;0.90;;;20.40;54.20;;;;;;5094154;28;20257;-71
2024/01/15 06:55:53;;;;;;;1.20;1.00;;;20.40;54.10;;;;;;5094536;28;20188;-71
2024/01/15 06:58:19;;;;;;;1.50;1.30;;;20.50;54.20;;;;;;5076863;28;20645;-69
2024/01/15 07:00:45;;;;;;;1.50;1.20;;;20.50;54.10;;;;;;5076309;28;20184;-70
2024/01/15 07:03:10;;;;;;;1.53;1.20;;;20.50;54.10;;;;;;5094296;28;20227;-71
2024/01/15 07:05:37;;;;;;;1.43;1.33;;;20.50;54.00;;;;;;5094841;28;20199;-71
2024/01/15 07:08:03;;;;;;;1.77;1.27;;;20.60;54.10;;;;;;5076663;28;20256;-71
2024/01/15 07:10:28;;;;;;;1.60;1.30;;;20.60;54.00;;;;;;5094130;28;20431;-71
2024/01/15 07:12:54;;;;;;;2.30;1.37;;;20.60;54.00;;;;;;5094338;28;20414;-70
2024/01/15 07:15:20;;;;;;;3.87;1.70;;;20.60;54.00;;;;;;5094322;28;20170;-70
2024/01/15 07:17:45;;;;;;;1.97;1.40;;;20.60;53.90;;;;;;5093785;28;20186;-70
2024/01/15 07:20:11;;;;;;;2.00;1.63;;;20.70;54.00;;;;;;5094408;28;20624;-70
2024/01/15 07:22:37;;;;;;;1.57;1.17;;;20.60;53.90;;;;;;5093829;28;20193;-72
2024/01/15 07:25:04;;;;;;;2.20;1.70;;;20.70;54.00;;;;;;5093532;28;20174;-72
2024/01/15 07:27:31;;;;;;;3.00;1.37;;;20.70;54.00;;;;;;5094417;28;20165;-72
2024/01/15 07:29:57;;;;;;;1.83;1.50;;;20.70;53.90;;;;;;5094590;28;21025;-71
2024/01/15 07:32:22;;;;;;;2.00;1.70;;;20.70;53.90;;;;;;5094488;28;20408;-71
2024/01/15 07:34:48;;;;;;;1.67;1.40;;;20.70;53.90;;;;;;5076439;28;20189;-71
2024/01/15 07:37:13;;;;;;;1.73;1.37;;;20.70;53.90;;;;;;5093952;28;20181;-71
2024/01/15 07:39:39;;;;;;;2.90;2.07;;;20.70;53.90;;;;;;5093548;28;20284;-71
2024/01/15 07:42:05;;;;;;;3.53;1.90;;;20.70;53.90;;;;;;5093594;28;20186;-70
2024/01/15 07:44:31;;;;;;;1.70;1.30;;;20.70;53.90;;;;;;5093643;28;20541;-70
2024/01/15 07:46:56;;;;;;;2.80;1.73;;;20.70;53.90;;;;;;5097634;28;20422;-71
2024/01/15 07:49:23;;;;;;;2.63;1.67;;;20.70;53.90;;;;;;5098122;28;20262;-71
2024/01/15 07:51:49;;;;;;;2.53;1.50;;;20.70;53.90;;;;;;5098236;28;20169;-72
2024/01/15 07:54:14;;;;;;;2.00;1.80;;;20.70;53.90;;;;;;5079142;28;20420;-71
2024/01/15 07:56:56;;;;;;;3.10;1.50;;;20.80;53.90;;;;;;5097385;28;20177;-71
2024/01/15 07:59:22;;;;;;;2.90;1.60;;;20.80;53.90;;;;;;5097763;28;20311;-71
2024/01/15 08:01:47;;;;;;;2.13;1.43;;;20.70;53.80;;;;;;5097503;28;20419;-71
2024/01/15 08:04:13;;;;;;;2.20;1.53;;;20.80;53.90;;;;;;5097907;28;20949;-70
2024/01/15 08:06:39;;;;;;;2.13;1.60;;;20.80;53.90;;;;;;5097388;28;20234;-70
2024/01/15 08:09:05;;;;;;;1.70;1.30;;;20.80;53.90;;;;;;5097437;28;20304;-70
2024/01/15 08:11:31;;;;;;;1.63;1.30;;;20.80;53.90;;;;;;5097273;28;20174;-70
2024/01/15 08:13:56;;;;;;;1.50;1.30;;;20.80;53.90;;;;;;5097572;28;20898;-69
2024/01/15 08:16:24;;;;;;;1.97;1.50;;;20.80;53.90;;;;;;5097112;28;20178;-71
2024/01/15 08:18:49;;;;;;;1.87;1.67;;;20.80;53.90;;;;;;5078928;28;20306;-71
2024/01/15 08:21:15;;;;;;;3.80;1.90;;;20.80;53.90;;;;;;5096950;28;20918;-70
2024/01/15 08:23:41;;;;;;;2.97;1.50;;;20.80;53.90;;;;;;5078719;28;20206;-71
2024/01/15 08:26:13;;;;;;;2.53;1.60;;;20.80;53.90;;;;;;5097411;28;20174;-72
2024/01/15 08:28:38;;;;;;;2.03;1.50;;;20.80;53.90;;;;;;5096796;28;20489;-69
2024/01/15 08:31:04;;;;;;;2.77;1.60;;;20.80;53.90;;;;;;5097377;28;20834;-72
2024/01/15 08:33:29;;;;;;;1.70;1.40;;;20.80;53.90;;;;;;5097063;28;20213;-71
2024/01/15 08:35:55;;;;;;;1.80;1.50;;;20.80;53.90;;;;;;5097525;28;20181;-71
2024/01/15 08:38:21;;;;;;;2.70;1.57;;;20.80;53.80;;;;;;5097505;28;20545;-70
2024/01/15 08:40:47;;;;;;;2.23;1.60;;;20.80;53.80;;;;;;5097078;28;20209;-71
2024/01/15 08:43:12;;;;;;;2.90;1.93;;;20.80;53.90;;;;;;5097053;28;20197;-70
2024/01/15 08:45:38;;;;;;;2.53;1.70;;;20.80;53.80;;;;;;5096985;28;20229;-72
2024/01/15 08:48:04;;;;;;;2.60;1.50;;;20.80;53.90;;;;;;5096817;28;20169;-71
2024/01/15 08:50:31;;;;;;;1.97;1.47;;;20.80;53.90;;;;;;5097237;28;20440;-71
2024/01/15 08:52:57;;;;;;;2.50;1.77;;;20.80;53.90;;;;;;5097304;28;20182;-71
2024/01/15 08:55:23;;;;;;;3.17;1.90;;;20.80;53.90;;;;;;5096908;28;20418;-71
2024/01/15 08:57:49;;;;;;;2.73;1.43;;;20.80;53.90;;;;;;5096398;28;20165;-70
2024/01/15 09:00:15;;;;;;;1.87;1.70;;;20.80;53.90;;;;;;5078026;28;20217;-71
2024/01/15 09:02:41;;;;;;;2.33;1.67;;;20.90;54.00;;;;;;5096807;28;20996;-69
2024/01/15 09:05:07;;;;;;;2.80;1.50;;;20.80;53.90;;;;;;5096866;28;20406;-72
2024/01/15 09:07:33;;;;;;;1.70;1.47;;;20.80;53.90;;;;;;5097141;28;20408;-70
2024/01/15 09:10:01;;;;;;;2.63;1.73;;;20.90;54.00;;;;;;5096705;28;20189;-71
2024/01/15 09:12:28;;;;;;;1.80;1.60;;;20.90;54.00;;;;;;5078442;28;20231;-71
2024/01/15 09:14:53;;;;;;;2.50;1.77;;;20.90;54.00;;;;;;5096597;28;20473;-69
2024/01/15 09:17:20;;;;;;;1.93;1.60;;;20.80;53.90;;;;;;5096376;28;20439;-71
2024/01/15 09:19:45;;;;;;;2.37;1.60;;;20.90;54.00;;;;;;5096755;28;20197;-70
2024/01/15 09:22:14;;;;;;;2.70;1.80;;;20.90;54.00;;;;;;5096782;28;20422;-70
2024/01/15 09:24:41;;;;;;;1.93;1.60;;;20.90;54.00;;;;;;5096792;28;20231;-71
2024/01/15 09:27:07;;;;;;;2.37;1.77;;;20.90;54.00;;;;;;5096661;28;20978;-71
2024/01/15 09:29:33;;;;;;;2.43;1.47;;;20.90;54.00;;;;;;5096276;28;20431;-71
2024/01/15 09:31:58;;;;;;;2.20;1.53;;;20.90;54.00;;;;;;5077899;28;21080;-71
2024/01/15 09:34:24;;;;;;;2.37;1.50;;;20.90;54.00;;;;;;5096373;28;20178;-71
2024/01/15 09:36:50;;;;;;;7.50;3.80;;;20.80;53.90;;;;;;5077568;28;20189;-70
2024/01/15 09:39:15;;;;;;;2.07;1.70;;;20.80;53.90;;;;;;5096233;28;20688;-70
2024/01/15 09:41:41;;;;;;;2.10;1.70;;;20.90;54.00;;;;;;5096644;28;20166;-71
2024/01/15 09:44:08;;;;;;;2.30;1.70;;;20.80;53.90;;;;;;5095725;28;20276;-72
2024/01/15 09:46:35;;;;;;;1.90;1.60;;;20.80;53.90;;;;;;5096228;28;20472;-70
2024/01/15 09:49:04;;;;;;;2.93;1.90;;;20.80;53.90;;;;;;5095484;28;20816;-70
2024/01/15 09:51:31;;;;;;;2.53;1.53;;;20.90;54.00;;;;;;5095209;28;20400;-70
2024/01/15 09:53:58;;;;;;;2.53;1.40;;;20.80;53.90;;;;;;5095664;28;20407;-72
2024/01/15 09:56:24;;;;;;;2.00;1.70;;;20.80;53.90;;;;;;5096233;28;20404;-71
2024/01/15 09:58:52;;;;;;;1.80;1.30;;;20.80;53.90;;;;;;5095100;28;20446;-71
2024/01/15 10:01:22;;;;;;;2.57;2.00;;;20.80;53.90;;;;;;5095512;28;20439;-71
2024/01/15 10:03:47;;;;;;;2.90;2.10;;;20.80;53.90;;;;;;5095579;28;20493;-72
2024/01/15 10:06:17;;;;;;;2.30;1.60;;;20.80;53.90;;;;;;5077612;28;20407;-71
2024/01/15 10:08:47;;;;;;;3.20;1.53;;;20.80;54.50;;;;;;5094586;28;20185;-69
2024/01/15 10:11:13;;;;;;;1.83;1.60;;;20.80;53.90;;;;;;5095967;28;20400;-72
2024/01/15 10:13:39;;;;;;;2.63;1.50;;;20.80;53.90;;;;;;5095710;28;20465;-72
2024/01/15 10:16:05;;;;;;;2.60;1.73;;;20.80;53.90;;;;;;5077032;28;20190;-72
2024/01/15 10:18:31;;;;;;;2.13;1.53;;;20.80;53.90;;;;;;5095409;28;20451;-71
2024/01/15 10:20:57;;;;;;;1.77;1.50;;;20.80;53.90;;;;;;5095390;28;20427;-72
2024/01/15 10:23:24;;;;;;;2.10;1.50;;;20.80;54.50;;;;;;5095672;28;20451;-71
2024/01/15 10:25:51;;;;;;;1.80;1.37;;;20.80;53.90;;;;;;5095451;28;21232;-71
2024/01/15 10:28:18;;;;;;;1.83;1.63;;;20.80;53.90;;;;;;5094991;28;21091;-71
2024/01/15 10:30:44;;;;;;;2.00;1.37;;;20.80;54.00;;;;;;5095026;28;20534;-72
2024/01/15 10:33:11;;;;;;;2.90;1.80;;;20.80;53.90;;;;;;5094789;28;20444;-72
2024/01/15 10:35:37;;;;;;;1.70;1.50;;;20.80;53.90;;;;;;5095037;28;20195;-71
2024/01/15 10:38:05;;;;;;;1.70;1.50;;;20.80;53.90;;;;;;5095205;28;20882;-71
2024/01/15 10:40:31;;;;;;;1.60;1.30;;;20.80;53.90;;;;;;5094541;28;20428;-72
2024/01/15 10:42:57;;;;;;;1.60;1.30;;;20.80;53.90;;;;;;5094155;28;20455;-71
2024/01/15 10:45:23;;;;;;;2.20;1.70;;;20.80;53.90;;;;;;5095279;28;20945;-71
2024/01/15 10:47:48;;;;;;;2.37;1.77;;;20.80;53.90;;;;;;5095048;28;20404;-72
2024/01/15 10:50:14;;;;;;;1.80;1.50;;;20.80;54.00;;;;;;5094179;28;20193;-72
2024/01/15 10:52:41;;;;;;;2.10;1.60;;;20.80;54.00;;;;;;5095024;28;20173;-71
2024/01/15 10:55:10;;;;;;;2.50;1.70;;;20.80;54.00;;;;;;5094981;28;20205;-72
2024/01/15 10:57:39;;;;;;;1.83;1.43;;;20.80;54.00;;;;;;5094555;28;20409;-71
2024/01/15 11:00:06;;;;;;;2.20;1.50;;;20.80;54.00;;;;;;5094614;28;20857;-71
2024/01/15 11:02:34;;;;;;;1.60;1.37;;;20.80;54.00;;;;;;5094416;28;20458;-71
2024/01/15 11:05:00;;;;;;;2.17;1.50;;;20.80;54.00;;;;;;5094642;28;20399;-71
2024/01/15 11:07:26;;;;;;;3.00;1.87;;;20.80;54.00;;;;;;5095193;28;20400;-71
2024/01/15 11:09:52;;;;;;;2.10;1.40;;;20.80;54.00;;;;;;5076209;28;20189;-69
2024/01/15 11:12:19;;;;;;;2.40;1.53;;;20.80;54.00;;;;;;5094113;28;20406;-71
2024/01/15 11:14:51;;;;;;;2.87;1.57;;;20.80;54.00;;;;;;5094503;28;20169;-71
2024/01/15 11:17:18;;;;;;;2.00;1.80;;;20.80;54.00;;;;;;5076122;28;20447;-71
2024/01/15 11:19:46;;;;;;;1.50;1.20;;;20.80;54.00;;;;;;5093710;28;20430;-72
2024/01/15 11:22:30;;;;;;;1.80;1.60;;;20.80;54.00;;;;;;5093882;28;20788;-71
2024/01/15 11:24:56;;;;;;;4.00;1.83;;;20.80;54.00;;;;;;5094311;28;20918;-72
2024/01/15 11:27:43;;;;;;;2.00;1.37;;;20.80;54.00;;;;;;5094224;28;20416;-71
2024/01/15 11:30:11;;;;;;;2.30;1.60;;;20.80;54.00;;;;;;5093855;28;20427;-69
2024/01/15 11:32:41;;;;;;;3.10;1.80;;;20.80;54.10;;;;;;5094012;28;20868;-71
2024/01/15 11:35:08;;;;;;;2.17;1.70;;;20.80;54.00;;;;;;5094158;28;20491;-69
2024/01/15 11:37:54;;;;;;;1.93;1.47;;;20.80;54.10;;;;;;5093650;28;20841;-71
2024/01/15 11:40:20;;;;;;;2.00;1.50;;;20.80;54.00;;;;;;5093446;28;20428;-69
2024/01/15 11:42:47;;;;;;;1.80;1.33;;;20.80;54.00;;;;;;5093601;28;20455;-71
2024/01/15 11:45:18;;;;;;;2.20;1.50;;;20.80;54.00;;;;;;5093620;28;20436;-72
2024/01/15 11:48:14;;;;;;;1.80;1.70;;;20.80;54.00;;;;;;5093066;28;20403;-72
2024/01/15 11:50:45;;;;;;;2.20;1.83;;;20.80;54.00;;;;;;5093943;28;20392;-71
2024/01/15 11:53:23;;;;;;;1.87;1.67;;;20.80;54.00;;;;;;5093418;28;20404;-71
2024/01/15 11:55:52;;;;;;;3.23;1.97;;;20.80;54.00;;;;;;5093530;28;20404;-72
2024/01/15 11:58:17;;;;;;;2.37;2.10;;;20.80;54.00;;;;;;5092959;28;20412;-71
2024/01/15 12:00:45;;;;;;;2.93;2.50;;;20.80;54.10;;;;;;5093488;28;20412;-71
2024/01/15 12:03:11;;;;;;;3.30;2.37;;;20.80;54.00;;;;;;5092952;28;20684;-71
2024/01/15 12:05:41;;;;;;;2.77;2.30;;;20.80;54.00;;;;;;5093134;28;20403;-72
2024/01/15 12:08:10;;;;;;;3.60;3.13;;;20.80;54.00;;;;;;5092710;28;20404;-70
2024/01/15 12:10:37;;;;;;;3.70;3.20;;;20.80;54.00;;;;;;5093501;28;20407;-69
2024/01/15 12:13:12;;;;;;;3.20;2.57;;;20.80;54.00;;;;;;5093001;28;20415;-69
2024/01/15 12:15:41;;;;;;;3.97;3.10;;;20.80;54.00;;;;;;5093342;28;20386;-71
2024/01/15 12:18:08;;;;;;;3.53;2.73;;;20.80;54.00;;;;;;5093253;28;20435;-70
2024/01/15 12:20:34;;;;;;;3.20;2.90;;;20.80;54.00;;;;;;5093150;28;20404;-70
2024/01/15 12:23:00;;;;;;;3.27;2.50;;;20.80;54.00;;;;;;5092749;28;20455;-71
2024/01/15 12:25:29;;;;;;;6.70;3.77;;;20.80;54.00;;;;;;5094030;28;20473;-72
2024/01/15 12:27:55;;;;;;;4.43;3.43;;;20.80;54.00;;;;;;5093429;28;20410;-69
2024/01/15 12:30:20;;;;;;;5.07;3.03;;;20.80;54.00;;;;;;5093562;28;20945;-71
2024/01/15 12:32:49;;;;;;;4.03;3.00;;;20.80;54.00;;;;;;5095261;28;20404;-71
2024/01/15 12:35:15;;;;;;;3.87;2.70;;;20.80;54.00;;;;;;5097134;28;20174;-70
2024/01/15 12:37:43;;;;;;;5.70;4.33;;;20.80;54.00;;;;;;5097154;28;20967;-71
2024/01/15 12:40:10;;;;;;;3.60;3.23;;;20.80;54.00;;;;;;5096870;28;20423;-73
2024/01/15 12:42:37;;;;;;;4.97;3.87;;;20.80;54.60;;;;;;5097449;28;20508;-70
2024/01/15 12:45:04;;;;;;;4.27;3.70;;;20.80;54.00;;;;;;5097135;28;20403;-70